createdAt,value
2019-05-12T00:01:12.744Z,1.73
2019-05-12T00:03:40.932Z,1.60
2019-05-12T00:06:08.842Z,1.40
2019-05-12T00:08:38.131Z,1.60
2019-05-12T00:11:08.767Z,1.60
2019-05-12T00:13:38.500Z,1.70
2019-05-12T00:16:08.626Z,1.43
2019-05-12T00:18:37.812Z,1.50
2019-05-12T00:21:08.645Z,1.80
2019-05-12T00:23:58.056Z,2.10
2019-05-12T00:26:28.148Z,1.70
2019-05-12T00:28:58.695Z,1.50
2019-05-12T00:31:28.003Z,1.50
2019-05-12T00:33:58.678Z,1.40
2019-05-12T00:36:29.092Z,2.00
2019-05-12T00:41:28.255Z,1.60
2019-05-12T00:46:28.020Z,1.75
2019-05-12T00:48:58.540Z,1.60
2019-05-12T00:51:28.625Z,1.50
2019-05-12T00:57:58.137Z,1.50
2019-05-12T01:00:29.235Z,1.30
2019-05-12T01:02:58.208Z,1.70
2019-05-12T01:05:26.535Z,1.60
2019-05-12T01:07:57.922Z,1.60
2019-05-12T01:10:28.632Z,1.80
2019-05-12T01:12:58.591Z,1.60
2019-05-12T01:15:28.618Z,1.75
2019-05-12T01:17:58.604Z,1.50
2019-05-12T01:20:28.310Z,1.70
2019-05-12T01:22:57.998Z,1.75
2019-05-12T01:25:28.742Z,1.90
2019-05-12T01:27:55.891Z,1.70
2019-05-12T01:30:23.794Z,1.90
2019-05-12T01:32:51.964Z,1.70
2019-05-12T01:35:19.290Z,1.90
2019-05-12T01:37:48.404Z,1.90
2019-05-12T01:40:16.098Z,2.00
2019-05-12T01:42:48.391Z,2.05
2019-05-12T01:45:18.045Z,1.75
2019-05-12T01:47:48.453Z,1.70
2019-05-12T01:50:17.817Z,1.75
2019-05-12T01:52:47.820Z,1.70
2019-05-12T01:55:15.361Z,1.80
2019-05-12T01:57:42.651Z,1.80
2019-05-12T02:00:11.229Z,1.75
2019-05-12T02:02:39.409Z,1.70
2019-05-12T02:05:08.639Z,2.00
2019-05-12T02:07:41.804Z,1.65
2019-05-12T02:10:10.836Z,1.70
2019-05-12T02:12:39.056Z,1.90
2019-05-12T02:15:08.135Z,1.70
2019-05-12T02:17:39.139Z,1.55
2019-05-12T02:20:07.785Z,1.60
2019-05-12T02:22:38.610Z,1.70
2019-05-12T02:25:07.949Z,1.70
2019-05-12T02:27:35.388Z,1.67
2019-05-12T02:30:03.847Z,2.15
2019-05-12T02:35:01.181Z,2.00
2019-05-12T02:37:29.367Z,1.70
2019-05-12T02:39:58.663Z,2.10
2019-05-12T02:42:27.585Z,1.80
2019-05-12T02:44:56.076Z,1.85
2019-05-12T02:47:24.424Z,1.70
2019-05-12T02:49:54.464Z,2.00
2019-05-12T02:52:24.950Z,1.70
2019-05-12T02:54:59.573Z,1.70
2019-05-12T02:57:25.714Z,1.80
2019-05-12T02:59:54.293Z,1.73
2019-05-12T03:02:24.452Z,1.90
2019-05-12T03:04:54.886Z,1.70
2019-05-12T03:07:25.436Z,1.80
2019-05-12T03:09:55.172Z,2.00
2019-05-12T03:12:25.623Z,2.10
2019-05-12T03:17:25.255Z,2.00
2019-05-12T03:21:24.300Z,2.00
2019-05-12T03:23:54.865Z,1.90
2019-05-12T03:26:24.719Z,2.00
2019-05-12T03:28:55.567Z,2.20
2019-05-12T03:31:30.575Z,1.90
2019-05-12T03:36:31.835Z,2.00
2019-05-12T03:38:55.138Z,2.20
2019-05-12T03:41:25.081Z,2.30
2019-05-12T03:43:54.966Z,2.30
2019-05-12T03:46:24.818Z,2.00
2019-05-12T03:48:55.294Z,2.20
2019-05-12T03:51:25.345Z,2.20
2019-05-12T03:53:55.671Z,2.05
2019-05-12T03:56:26.013Z,2.20
2019-05-12T03:58:54.944Z,2.25
2019-05-12T04:01:25.476Z,2.10
2019-05-12T04:03:54.278Z,2.30
2019-05-12T04:06:24.513Z,2.30
2019-05-12T04:08:54.998Z,1.70
2019-05-12T04:11:25.011Z,1.90
2019-05-12T04:13:55.054Z,2.20
2019-05-12T04:16:24.755Z,2.20
2019-05-12T04:18:55.225Z,2.15
2019-05-12T04:21:24.448Z,2.45
2019-05-12T04:23:54.787Z,2.30
2019-05-12T04:26:25.350Z,2.20
2019-05-12T04:28:54.949Z,2.00
2019-05-12T04:31:24.888Z,2.47
2019-05-12T04:33:54.664Z,2.45
2019-05-12T04:36:25.029Z,2.70
2019-05-12T04:38:55.791Z,2.30
2019-05-12T04:41:26.079Z,2.40
2019-05-12T04:43:55.706Z,2.45
2019-05-12T04:46:25.436Z,1.90
2019-05-12T04:48:54.853Z,2.30
2019-05-12T04:51:25.944Z,2.30
2019-05-12T04:53:55.010Z,2.20
2019-05-12T04:56:25.007Z,2.20
2019-05-12T04:58:54.707Z,2.00
2019-05-12T05:01:25.409Z,2.20
2019-05-12T05:03:54.532Z,2.30
2019-05-12T05:06:25.074Z,2.15
2019-05-12T05:08:54.502Z,2.40
2019-05-12T05:11:24.956Z,2.55
2019-05-12T05:13:54.755Z,2.10
2019-05-12T05:16:24.859Z,2.27
2019-05-12T05:18:54.301Z,3.00
2019-05-12T05:21:24.138Z,2.20
2019-05-12T05:26:27.960Z,2.20
2019-05-12T05:28:54.093Z,2.62
2019-05-12T05:31:21.103Z,2.10
2019-05-12T05:33:50.252Z,2.15
2019-05-12T05:36:19.875Z,1.97
2019-05-12T05:38:51.071Z,2.60
2019-05-12T05:41:17.064Z,2.00
2019-05-12T05:43:48.586Z,2.40
2019-05-12T05:46:15.600Z,2.20
2019-05-12T05:51:13.617Z,2.95
2019-05-12T05:53:44.251Z,2.20
2019-05-12T05:56:14.246Z,2.50
2019-05-12T05:58:49.589Z,2.45
2019-05-12T06:03:44.049Z,2.60
2019-05-12T06:06:13.055Z,2.40
2019-05-12T06:08:44.402Z,1.90
2019-05-12T06:13:44.278Z,2.20
2019-05-12T06:16:20.158Z,2.58
2019-05-12T06:18:43.969Z,2.50
2019-05-12T06:21:13.783Z,3.00
2019-05-12T06:23:43.432Z,2.20
2019-05-12T06:26:14.028Z,2.20
2019-05-12T06:31:13.573Z,2.00
2019-05-12T06:33:40.780Z,2.47
2019-05-12T06:36:14.133Z,2.60
2019-05-12T06:38:40.544Z,2.75
2019-05-12T06:41:12.419Z,1.95
2019-05-12T06:44:17.382Z,2.20
2019-05-12T06:49:17.657Z,2.13
2019-05-12T06:51:45.301Z,2.00
2019-05-12T06:54:15.125Z,1.97
2019-05-12T06:59:12.351Z,2.15
2019-05-12T07:01:45.043Z,2.15
2019-05-12T07:06:44.142Z,2.10
2019-05-12T07:14:27.269Z,1.95
2019-05-12T07:17:01.791Z,2.05
2019-05-12T07:19:29.960Z,2.00
2019-05-12T07:22:00.055Z,2.10
2019-05-12T07:24:28.086Z,1.90
2019-05-12T07:27:04.106Z,2.55
2019-05-12T07:29:26.781Z,1.95
2019-05-12T07:31:54.439Z,2.15
2019-05-12T07:34:24.122Z,2.00
2019-05-12T07:36:53.835Z,2.23
2019-05-12T07:39:24.181Z,2.00
2019-05-12T07:46:54.069Z,1.80
2019-05-12T07:49:34.531Z,2.45
2019-05-12T07:51:54.239Z,2.10
2019-05-12T07:54:23.610Z,2.30
2019-05-12T07:56:54.000Z,2.20
2019-05-12T08:01:54.998Z,1.90
2019-05-12T08:04:23.903Z,2.20
2019-05-12T08:06:53.824Z,2.47
2019-05-12T08:09:24.085Z,2.30
2019-05-12T08:11:54.083Z,2.45
2019-05-12T08:14:28.531Z,2.10
2019-05-12T08:16:54.259Z,2.50
2019-05-12T08:19:25.575Z,2.30
2019-05-12T08:24:23.682Z,2.20
2019-05-12T08:26:59.605Z,2.30
2019-05-12T08:31:54.807Z,2.10
2019-05-12T08:34:23.789Z,2.20
2019-05-12T08:36:57.923Z,2.23
2019-05-12T08:41:14.419Z,1.90
2019-05-12T08:43:47.014Z,2.10
2019-05-12T08:46:15.708Z,2.30
2019-05-12T08:48:44.720Z,2.30
2019-05-12T08:51:16.754Z,2.23
2019-05-12T08:53:44.062Z,1.90
2019-05-12T08:58:48.281Z,2.40
2019-05-12T09:01:13.669Z,2.00
2019-05-12T09:03:44.115Z,2.00
2019-05-12T09:06:15.513Z,1.90
2019-05-12T09:08:45.222Z,1.80
2019-05-12T09:11:13.934Z,1.90
2019-05-12T09:14:41.319Z,2.10
2019-05-12T09:17:10.616Z,2.10
2019-05-12T09:19:40.637Z,2.40
2019-05-12T09:22:16.995Z,2.20
2019-05-12T09:24:40.675Z,2.20
2019-05-12T09:27:09.163Z,2.05
2019-05-12T09:29:37.532Z,1.90
2019-05-12T09:32:09.531Z,2.35
2019-05-12T09:34:36.086Z,2.40
2019-05-12T09:37:04.396Z,2.20
2019-05-12T09:39:34.081Z,2.22
2019-05-12T09:42:03.827Z,2.37
2019-05-12T09:47:21.774Z,2.20
2019-05-12T09:49:40.230Z,2.35
2019-05-12T09:54:40.921Z,2.50
2019-05-12T09:57:08.874Z,3.20
2019-05-12T09:59:37.488Z,2.52
2019-05-12T10:04:37.147Z,2.60
2019-05-12T10:07:07.527Z,2.35
2019-05-12T10:09:36.309Z,2.75
2019-05-12T10:14:35.095Z,2.60
2019-05-12T10:19:23.522Z,2.60
2019-05-12T10:21:55.191Z,2.85
2019-05-12T10:24:24.109Z,3.25
2019-05-12T10:26:54.176Z,3.10
2019-05-12T10:29:24.387Z,3.70
2019-05-12T10:31:53.696Z,3.10
2019-05-12T10:34:23.875Z,2.80
2019-05-12T10:36:53.746Z,3.25
2019-05-12T10:39:24.330Z,4.10
2019-05-12T10:41:54.603Z,4.40
2019-05-12T10:44:22.506Z,4.80
2019-05-12T10:46:53.897Z,3.90
2019-05-12T10:49:23.338Z,3.40
2019-05-12T10:51:53.775Z,3.60
2019-05-12T10:54:24.250Z,3.70
2019-05-12T10:56:54.614Z,4.15
2019-05-12T10:59:32.140Z,4.20
2019-05-12T11:01:55.301Z,3.80
2019-05-12T11:04:35.216Z,4.10
2019-05-12T11:06:53.815Z,3.95
2019-05-12T11:09:27.331Z,4.40
2019-05-12T11:11:54.158Z,4.60
2019-05-12T11:14:26.336Z,4.20
2019-05-12T11:16:55.444Z,4.00
2019-05-12T11:19:24.993Z,5.10
2019-05-12T11:21:54.630Z,4.33
2019-05-12T11:24:22.602Z,4.60
2019-05-12T11:26:53.679Z,4.80
2019-05-12T11:29:23.567Z,3.90
2019-05-12T11:32:47.820Z,4.50
2019-05-12T11:35:17.672Z,3.80
2019-05-12T11:37:46.543Z,4.20
2019-05-12T11:40:14.770Z,4.00
2019-05-12T11:42:46.792Z,6.00
2019-05-12T11:45:13.791Z,4.10
2019-05-12T11:47:44.663Z,4.70
2019-05-12T11:50:13.261Z,3.60
2019-05-12T11:52:46.076Z,3.95
2019-05-12T11:55:13.458Z,4.77
2019-05-12T11:57:43.756Z,4.45
2019-05-12T12:01:19.792Z,4.53
2019-05-12T12:03:49.455Z,4.00
2019-05-12T12:06:17.859Z,4.80
2019-05-12T12:08:46.853Z,4.20
2019-05-12T12:11:21.926Z,4.20
2019-05-12T12:13:46.103Z,3.80
2019-05-12T12:16:15.523Z,3.90
2019-05-12T12:18:46.606Z,3.90
2019-05-12T12:21:15.125Z,3.35
2019-05-12T12:23:48.787Z,3.80
2019-05-12T12:26:30.007Z,3.60
2019-05-12T12:28:55.858Z,3.30
2019-05-12T12:31:24.142Z,3.70
2019-05-12T12:33:53.600Z,4.10
2019-05-12T12:36:23.694Z,3.15
2019-05-12T12:38:53.360Z,3.40
2019-05-12T12:41:23.577Z,3.40
2019-05-12T12:43:54.024Z,3.30
2019-05-12T12:46:26.577Z,3.50
2019-05-12T12:48:55.049Z,3.60
2019-05-12T12:51:24.788Z,3.45
2019-05-12T12:53:54.179Z,3.00
2019-05-12T12:58:55.258Z,3.00
2019-05-12T13:02:54.378Z,3.20
2019-05-12T13:05:23.951Z,2.40
2019-05-12T13:07:53.473Z,2.30
2019-05-12T13:10:24.789Z,2.30
2019-05-12T13:12:58.728Z,2.75
2019-05-12T13:15:25.219Z,1.90
2019-05-12T13:17:54.420Z,2.15
2019-05-12T13:20:23.939Z,2.80
2019-05-12T13:22:53.614Z,2.20
2019-05-12T13:25:22.623Z,2.30
2019-05-12T13:27:53.443Z,2.40
2019-05-12T13:30:24.213Z,2.25
2019-05-12T13:32:52.989Z,2.00
2019-05-12T13:35:23.607Z,2.10
2019-05-12T13:37:58.443Z,2.55
2019-05-12T13:42:35.683Z,2.10
2019-05-12T13:45:00.432Z,2.25
2019-05-12T13:47:35.335Z,2.10
2019-05-12T13:50:00.280Z,2.10
2019-05-12T13:52:30.491Z,2.10
2019-05-12T13:55:00.113Z,2.00
2019-05-12T13:57:30.763Z,2.50
2019-05-12T14:00:06.797Z,2.65
2019-05-12T14:05:15.071Z,2.00
2019-05-12T14:07:43.675Z,2.00
2019-05-12T14:10:13.878Z,2.10
2019-05-12T14:12:43.715Z,1.90
2019-05-12T14:15:14.494Z,2.10
2019-05-12T14:17:43.828Z,2.10
2019-05-12T14:20:15.717Z,2.67
2019-05-12T14:22:44.738Z,2.20
2019-05-12T14:25:15.254Z,2.05
2019-05-12T14:30:13.805Z,2.00
2019-05-12T14:32:43.788Z,2.22
2019-05-12T14:35:10.937Z,1.77
2019-05-12T14:37:40.271Z,2.87
2019-05-12T14:40:08.972Z,2.17
2019-05-12T14:42:39.745Z,2.60
2019-05-12T14:45:07.948Z,1.80
2019-05-12T14:47:38.986Z,2.00
2019-05-12T14:50:06.713Z,2.00
2019-05-12T14:52:35.552Z,2.20
2019-05-12T14:55:05.621Z,2.00
2019-05-12T14:57:37.512Z,2.15
2019-05-12T15:00:04.769Z,2.20
2019-05-12T15:05:41.418Z,1.95
2019-05-12T15:08:08.158Z,2.10
2019-05-12T15:13:04.755Z,1.95
2019-05-12T15:15:33.636Z,2.20
2019-05-12T15:18:04.719Z,1.90
2019-05-12T15:23:03.720Z,2.20
2019-05-12T15:25:35.460Z,1.70
2019-05-12T15:28:05.237Z,1.80
2019-05-12T15:33:04.582Z,2.00
2019-05-12T15:38:03.725Z,1.90
2019-05-12T15:40:33.448Z,1.70
2019-05-12T15:46:45.979Z,1.57
2019-05-12T15:49:14.130Z,1.85
2019-05-12T15:51:54.030Z,2.13
2019-05-12T15:56:43.995Z,1.90
2019-05-12T15:59:14.613Z,1.70
2019-05-12T16:01:43.920Z,1.93
2019-05-12T16:06:45.120Z,1.40
2019-05-12T16:09:13.232Z,1.60
2019-05-12T16:11:42.941Z,1.70
2019-05-12T16:14:11.694Z,2.30
2019-05-12T16:16:42.719Z,1.75
2019-05-12T16:19:12.065Z,1.80
2019-05-12T16:22:03.610Z,2.20
2019-05-12T16:24:31.116Z,2.60
2019-05-12T16:26:59.777Z,3.45
2019-05-12T16:29:28.523Z,3.60
2019-05-12T16:31:56.657Z,3.00
2019-05-12T16:34:25.097Z,2.95
2019-05-12T16:36:54.755Z,2.65
2019-05-12T16:39:24.064Z,2.40
2019-05-12T16:41:54.265Z,2.95
2019-05-12T16:44:26.066Z,4.05
2019-05-12T16:46:54.590Z,5.30
2019-05-12T16:49:24.943Z,7.20
2019-05-12T16:51:54.273Z,5.60
2019-05-12T16:54:24.041Z,4.83
2019-05-12T16:56:53.945Z,6.60
2019-05-12T16:59:24.619Z,4.85
2019-05-12T17:01:54.277Z,5.70
2019-05-12T17:04:23.746Z,5.80
2019-05-12T17:06:51.990Z,5.20
2019-05-12T17:09:20.002Z,5.70
2019-05-12T17:11:52.553Z,5.45
2019-05-12T17:14:20.385Z,5.80
2019-05-12T17:16:48.138Z,6.10
2019-05-12T17:19:16.870Z,5.00
2019-05-12T17:24:15.358Z,4.73
2019-05-12T17:26:44.058Z,4.50
2019-05-12T17:29:13.864Z,4.30
2019-05-12T17:31:44.399Z,4.37
2019-05-12T17:35:14.716Z,4.60
2019-05-12T17:37:42.870Z,4.20
2019-05-12T17:40:15.589Z,4.45
2019-05-12T17:42:43.842Z,4.90
2019-05-12T17:45:15.802Z,4.10
2019-05-12T17:47:44.101Z,3.70
2019-05-12T17:53:55.465Z,3.80
2019-05-12T17:56:33.219Z,4.15
2019-05-12T17:59:59.931Z,4.00
2019-05-12T18:02:28.015Z,4.05
2019-05-12T18:05:12.302Z,3.30
2019-05-12T18:07:40.124Z,3.60
2019-05-12T18:13:28.325Z,3.10
2019-05-12T18:15:57.045Z,2.97
2019-05-12T18:20:58.328Z,3.50
2019-05-12T18:23:30.452Z,3.65
2019-05-12T18:26:02.990Z,3.50
2019-05-12T18:28:33.315Z,3.40
2019-05-12T18:31:01.622Z,3.70
2019-05-12T18:34:58.113Z,3.40
2019-05-12T18:37:26.973Z,3.30
2019-05-12T18:39:56.079Z,3.70
2019-05-12T18:42:25.984Z,3.80
2019-05-12T18:47:31.734Z,3.25
2019-05-12T18:49:56.235Z,3.20
2019-05-12T18:52:29.362Z,3.60
2019-05-12T18:54:57.685Z,3.20
2019-05-12T18:57:27.038Z,2.90
2019-05-12T19:02:28.595Z,3.15
2019-05-12T19:07:54.249Z,3.20
2019-05-12T19:10:24.100Z,2.70
2019-05-12T19:13:01.041Z,2.35
2019-05-12T19:15:52.684Z,2.40
2019-05-12T19:18:24.337Z,3.00
2019-05-12T19:20:48.977Z,2.40
2019-05-12T19:23:17.086Z,2.20
2019-05-12T19:25:44.746Z,2.20
2019-05-12T19:28:13.510Z,2.00
2019-05-12T19:30:41.027Z,2.60
2019-05-12T19:33:10.764Z,2.20
2019-05-12T19:35:38.154Z,2.10
2019-05-12T19:38:08.083Z,1.85
2019-05-12T19:40:36.054Z,2.00
2019-05-12T19:43:08.211Z,1.77
2019-05-12T19:45:33.804Z,2.40
2019-05-12T19:48:01.108Z,1.60
2019-05-12T19:50:28.311Z,1.67
2019-05-12T19:52:56.371Z,1.60
2019-05-12T19:55:27.315Z,1.60
2019-05-12T19:58:02.328Z,1.70
2019-05-12T20:00:26.810Z,1.90
2019-05-12T20:02:54.371Z,2.00
2019-05-12T20:05:23.768Z,1.90
2019-05-12T20:07:53.721Z,1.60
2019-05-12T20:10:24.142Z,1.80
2019-05-12T20:12:54.724Z,1.50
2019-05-12T20:15:20.407Z,1.80
2019-05-12T20:17:48.822Z,2.20
2019-05-12T20:20:17.949Z,2.60
2019-05-12T20:22:45.784Z,2.20
2019-05-12T20:25:14.622Z,2.55
2019-05-12T20:27:44.607Z,2.20
2019-05-12T20:30:17.184Z,2.30
2019-05-12T20:32:43.512Z,1.90
2019-05-12T20:35:11.210Z,1.90
2019-05-12T20:37:46.605Z,2.15
2019-05-12T20:40:08.364Z,2.25
2019-05-12T20:42:42.258Z,2.05
2019-05-12T20:45:05.686Z,2.20
2019-05-12T20:47:33.842Z,2.00
2019-05-12T20:50:04.517Z,2.20
2019-05-12T20:52:34.231Z,2.20
2019-05-12T20:55:03.694Z,2.35
2019-05-12T20:57:31.141Z,2.47
2019-05-12T21:00:04.883Z,1.97
2019-05-12T21:02:28.378Z,2.00
2019-05-12T21:05:00.978Z,2.50
2019-05-12T21:07:27.078Z,2.13
2019-05-12T21:09:54.692Z,2.35
2019-05-12T21:12:24.062Z,2.00
2019-05-12T21:14:53.301Z,1.90
2019-05-12T21:17:39.128Z,1.90
2019-05-12T21:19:56.856Z,2.20
2019-05-12T21:22:23.723Z,1.90
2019-05-12T21:24:53.247Z,2.70
2019-05-12T21:27:20.265Z,2.20
2019-05-12T21:29:47.519Z,2.15
2019-05-12T21:32:16.917Z,2.00
2019-05-12T21:34:44.565Z,1.90
2019-05-12T21:37:13.988Z,2.10
2019-05-12T21:39:46.847Z,2.20
2019-05-12T21:42:11.737Z,1.85
2019-05-12T21:44:41.437Z,2.25
2019-05-12T21:47:10.581Z,2.10
2019-05-12T21:49:42.578Z,2.00
2019-05-12T21:52:08.028Z,1.90
2019-05-12T21:54:39.454Z,1.80
2019-05-12T21:57:05.033Z,1.75
2019-05-12T21:59:35.387Z,1.90
2019-05-12T22:02:04.113Z,2.17
2019-05-12T22:04:35.274Z,1.70
2019-05-12T22:07:00.671Z,1.83
2019-05-12T22:09:32.890Z,1.90
2019-05-12T22:11:57.308Z,2.00
2019-05-12T22:14:24.708Z,2.33
2019-05-12T22:16:54.337Z,1.60
2019-05-12T22:19:21.989Z,1.95
2019-05-12T22:21:49.692Z,2.10
2019-05-12T22:24:17.066Z,1.80
2019-05-12T22:27:35.919Z,2.10
2019-05-12T22:30:04.417Z,2.30
2019-05-12T22:32:33.129Z,1.90
2019-05-12T22:35:00.354Z,1.87
2019-05-12T22:37:29.523Z,1.80
2019-05-12T22:39:57.515Z,1.70
2019-05-12T22:42:24.988Z,2.00
2019-05-12T22:45:01.212Z,1.80
2019-05-12T22:47:23.999Z,1.80
2019-05-12T22:49:55.340Z,1.80
2019-05-12T22:52:20.490Z,1.80
2019-05-12T22:54:50.957Z,1.80
2019-05-12T22:57:17.646Z,2.30
2019-05-12T22:59:46.038Z,1.80
2019-05-12T23:02:16.057Z,1.55
2019-05-12T23:04:44.015Z,1.95
2019-05-12T23:07:18.751Z,1.80
2019-05-12T23:09:43.869Z,1.80
2019-05-12T23:12:18.537Z,2.20
2019-05-12T23:14:44.416Z,1.70
2019-05-12T23:17:13.874Z,1.92
2019-05-12T23:19:51.575Z,2.23
2019-05-12T23:22:14.406Z,1.95
2019-05-12T23:24:44.336Z,1.70
2019-05-12T23:27:13.697Z,1.50
2019-05-12T23:29:44.364Z,2.10
2019-05-12T23:32:15.033Z,1.60
2019-05-12T23:34:54.094Z,1.70
2019-05-12T23:37:17.278Z,1.70
2019-05-12T23:39:46.454Z,2.12
2019-05-12T23:44:00.550Z,2.00
2019-05-12T23:46:30.026Z,2.02
2019-05-12T23:48:59.449Z,1.60
2019-05-12T23:51:28.746Z,1.70
2019-05-12T23:53:57.877Z,1.60
2019-05-12T23:56:27.360Z,1.80
2019-05-12T23:58:56.721Z,1.70
